sensor_id;sensor_type;location;lat;lon;timestamp;temperature;humidity
23283;DHT22;11810;51.178;3.878;2022-12-29T00:01:49;11.50;99.90
23283;DHT22;11810;51.178;3.878;2022-12-29T00:04:15;11.50;99.90
23283;DHT22;11810;51.178;3.878;2022-12-29T00:06:42;11.50;99.90
23283;DHT22;11810;51.178;3.878;2022-12-29T00:09:10;11.60;99.90
23283;DHT22;11810;51.178;3.878;2022-12-29T00:11:36;11.60;99.90
23283;DHT22;11810;51.178;3.878;2022-12-29T00:14:02;11.70;99.90
23283;DHT22;11810;51.178;3.878;2022-12-29T00:16:46;11.80;99.90
23283;DHT22;11810;51.178;3.878;2022-12-29T00:19:12;11.80;99.90
23283;DHT22;11810;51.178;3.878;2022-12-29T00:21:57;11.80;99.90
23283;DHT22;11810;51.178;3.878;2022-12-29T00:24:45;11.80;99.90
23283;DHT22;11810;51.178;3.878;2022-12-29T00:27:29;11.80;99.90
23283;DHT22;11810;51.178;3.878;2022-12-29T00:30:20;11.80;99.90
23283;DHT22;11810;51.178;3.878;2022-12-29T00:33:16;11.80;99.90
23283;DHT22;11810;51.178;3.878;2022-12-29T00:36:53;11.80;99.90
23283;DHT22;11810;51.178;3.878;2022-12-29T00:39:02;11.90;99.90
23283;DHT22;11810;51.178;3.878;2022-12-29T00:41:48;12.00;99.90
23283;DHT22;11810;51.178;3.878;2022-12-29T00:44:32;11.90;99.90
23283;DHT22;11810;51.178;3.878;2022-12-29T00:46:58;12.00;99.90
23283;DHT22;11810;51.178;3.878;2022-12-29T00:49:28;12.00;99.90
23283;DHT22;11810;51.178;3.878;2022-12-29T00:52:08;12.00;99.90
23283;DHT22;11810;51.178;3.878;2022-12-29T00:54:36;11.90;99.90
23283;DHT22;11810;51.178;3.878;2022-12-29T00:57:04;11.80;99.90
23283;DHT22;11810;51.178;3.878;2022-12-29T00:59:30;11.80;99.90
23283;DHT22;11810;51.178;3.878;2022-12-29T01:01:56;11.80;99.90
23283;DHT22;11810;51.178;3.878;2022-12-29T01:04:24;11.80;99.90
23283;DHT22;11810;51.178;3.878;2022-12-29T01:06:50;11.90;99.90
23283;DHT22;11810;51.178;3.878;2022-12-29T01:09:18;11.90;99.90
23283;DHT22;11810;51.178;3.878;2022-12-29T01:12:03;11.90;99.90
23283;DHT22;11810;51.178;3.878;2022-12-29T01:14:29;11.90;99.90
23283;DHT22;11810;51.178;3.878;2022-12-29T01:16:55;11.90;99.90
23283;DHT22;11810;51.178;3.878;2022-12-29T01:19:22;11.90;99.90
23283;DHT22;11810;51.178;3.878;2022-12-29T01:21:48;12.00;99.90
23283;DHT22;11810;51.178;3.878;2022-12-29T01:24:16;12.00;99.90
23283;DHT22;11810;51.178;3.878;2022-12-29T01:26:42;12.00;99.90
23283;DHT22;11810;51.178;3.878;2022-12-29T01:29:08;12.10;99.90
23283;DHT22;11810;51.178;3.878;2022-12-29T01:31:34;12.10;99.90
23283;DHT22;11810;51.178;3.878;2022-12-29T01:34:00;12.10;99.90
23283;DHT22;11810;51.178;3.878;2022-12-29T01:36:25;12.10;99.90
23283;DHT22;11810;51.178;3.878;2022-12-29T01:38:51;12.10;99.90
23283;DHT22;11810;51.178;3.878;2022-12-29T01:41:17;12.10;99.90
23283;DHT22;11810;51.178;3.878;2022-12-29T01:49:04;12.10;99.90
23283;DHT22;11810;51.178;3.878;2022-12-29T01:51:37;12.00;99.90
23283;DHT22;11810;51.178;3.878;2022-12-29T01:54:11;12.10;99.90
23283;DHT22;11810;51.178;3.878;2022-12-29T01:56:38;12.00;99.90
23283;DHT22;11810;51.178;3.878;2022-12-29T01:59:09;12.00;99.90
23283;DHT22;11810;51.178;3.878;2022-12-29T02:01:36;12.10;99.90
23283;DHT22;11810;51.178;3.878;2022-12-29T02:04:03;12.10;99.90
23283;DHT22;11810;51.178;3.878;2022-12-29T02:06:43;12.10;99.90
23283;DHT22;11810;51.178;3.878;2022-12-29T02:09:11;12.10;99.90
23283;DHT22;11810;51.178;3.878;2022-12-29T02:11:38;12.10;99.90
23283;DHT22;11810;51.178;3.878;2022-12-29T02:14:11;12.00;99.90
23283;DHT22;11810;51.178;3.878;2022-12-29T02:16:54;12.00;99.90
23283;DHT22;11810;51.178;3.878;2022-12-29T02:19:51;11.90;99.90
23283;DHT22;11810;51.178;3.878;2022-12-29T02:22:48;11.90;99.90
23283;DHT22;11810;51.178;3.878;2022-12-29T02:36:50;11.70;99.90
23283;DHT22;11810;51.178;3.878;2022-12-29T02:43:18;11.80;99.90
23283;DHT22;11810;51.178;3.878;2022-12-29T02:45:26;11.70;99.90
23283;DHT22;11810;51.178;3.878;2022-12-29T02:48:27;11.80;99.90
23283;DHT22;11810;51.178;3.878;2022-12-29T02:50:51;11.80;99.90
23283;DHT22;11810;51.178;3.878;2022-12-29T02:53:18;11.70;99.90
23283;DHT22;11810;51.178;3.878;2022-12-29T02:56:05;11.70;99.90
23283;DHT22;11810;51.178;3.878;2022-12-29T02:58:30;11.70;99.90
23283;DHT22;11810;51.178;3.878;2022-12-29T03:15:24;11.30;99.90
23283;DHT22;11810;51.178;3.878;2022-12-29T03:18:25;11.20;99.90
23283;DHT22;11810;51.178;3.878;2022-12-29T03:21:00;11.00;99.90
23283;DHT22;11810;51.178;3.878;2022-12-29T03:23:28;10.90;99.90
23283;DHT22;11810;51.178;3.878;2022-12-29T03:25:58;10.70;99.90
23283;DHT22;11810;51.178;3.878;2022-12-29T03:28:35;10.60;99.90
23283;DHT22;11810;51.178;3.878;2022-12-29T03:31:04;10.50;99.90
23283;DHT22;11810;51.178;3.878;2022-12-29T03:33:32;10.50;99.90
23283;DHT22;11810;51.178;3.878;2022-12-29T03:36:03;10.40;99.90
23283;DHT22;11810;51.178;3.878;2022-12-29T03:38:50;10.30;99.90
23283;DHT22;11810;51.178;3.878;2022-12-29T03:41:23;10.30;99.90
23283;DHT22;11810;51.178;3.878;2022-12-29T03:43:51;10.30;99.90
23283;DHT22;11810;51.178;3.878;2022-12-29T03:46:17;10.30;99.90
23283;DHT22;11810;51.178;3.878;2022-12-29T03:48:43;10.40;99.90
23283;DHT22;11810;51.178;3.878;2022-12-29T03:51:09;10.40;99.90
23283;DHT22;11810;51.178;3.878;2022-12-29T03:53:35;10.50;99.90
23283;DHT22;11810;51.178;3.878;2022-12-29T03:56:01;10.60;99.90
23283;DHT22;11810;51.178;3.878;2022-12-29T03:58:26;10.60;99.90
23283;DHT22;11810;51.178;3.878;2022-12-29T04:00:52;10.70;99.90
23283;DHT22;11810;51.178;3.878;2022-12-29T04:03:18;10.70;99.90
23283;DHT22;11810;51.178;3.878;2022-12-29T04:05:44;10.80;99.90
23283;DHT22;11810;51.178;3.878;2022-12-29T04:08:16;10.70;99.90
23283;DHT22;11810;51.178;3.878;2022-12-29T04:10:42;10.80;99.90
23283;DHT22;11810;51.178;3.878;2022-12-29T04:13:08;10.70;99.90
23283;DHT22;11810;51.178;3.878;2022-12-29T04:15:34;10.60;99.90
23283;DHT22;11810;51.178;3.878;2022-12-29T04:17:59;10.60;99.90
23283;DHT22;11810;51.178;3.878;2022-12-29T04:20:25;10.60;99.90
23283;DHT22;11810;51.178;3.878;2022-12-29T04:23:09;10.60;99.90
23283;DHT22;11810;51.178;3.878;2022-12-29T04:25:35;10.60;99.90
23283;DHT22;11810;51.178;3.878;2022-12-29T04:28:01;10.60;99.90
23283;DHT22;11810;51.178;3.878;2022-12-29T04:30:27;10.60;99.90
23283;DHT22;11810;51.178;3.878;2022-12-29T04:32:52;10.70;99.90
23283;DHT22;11810;51.178;3.878;2022-12-29T04:35:18;10.70;99.90
23283;DHT22;11810;51.178;3.878;2022-12-29T04:37:44;10.70;99.90
23283;DHT22;11810;51.178;3.878;2022-12-29T04:40:10;10.50;99.90
23283;DHT22;11810;51.178;3.878;2022-12-29T04:42:36;10.40;99.90
23283;DHT22;11810;51.178;3.878;2022-12-29T04:45:02;10.30;99.90
23283;DHT22;11810;51.178;3.878;2022-12-29T04:47:28;10.30;99.90
23283;DHT22;11810;51.178;3.878;2022-12-29T04:49:54;10.20;99.90
23283;DHT22;11810;51.178;3.878;2022-12-29T04:52:20;10.40;99.90
23283;DHT22;11810;51.178;3.878;2022-12-29T04:54:46;10.40;99.90
23283;DHT22;11810;51.178;3.878;2022-12-29T04:57:12;10.40;99.90
23283;DHT22;11810;51.178;3.878;2022-12-29T04:59:38;10.50;99.90
23283;DHT22;11810;51.178;3.878;2022-12-29T05:02:04;10.60;99.90
23283;DHT22;11810;51.178;3.878;2022-12-29T05:04:29;10.50;99.90
23283;DHT22;11810;51.178;3.878;2022-12-29T05:06:55;10.50;99.90
23283;DHT22;11810;51.178;3.878;2022-12-29T05:09:21;10.50;99.90
23283;DHT22;11810;51.178;3.878;2022-12-29T05:11:46;10.60;99.90
23283;DHT22;11810;51.178;3.878;2022-12-29T05:14:13;10.60;99.90
23283;DHT22;11810;51.178;3.878;2022-12-29T05:16:39;10.50;99.90
23283;DHT22;11810;51.178;3.878;2022-12-29T05:19:04;10.60;99.90
23283;DHT22;11810;51.178;3.878;2022-12-29T05:21:30;10.60;99.90
23283;DHT22;11810;51.178;3.878;2022-12-29T05:23:56;10.60;99.90
23283;DHT22;11810;51.178;3.878;2022-12-29T05:26:22;10.60;99.90
23283;DHT22;11810;51.178;3.878;2022-12-29T05:28:48;10.60;99.90
23283;DHT22;11810;51.178;3.878;2022-12-29T05:31:14;10.50;99.90
23283;DHT22;11810;51.178;3.878;2022-12-29T05:33:40;10.50;99.90
23283;DHT22;11810;51.178;3.878;2022-12-29T05:36:08;10.40;99.90
23283;DHT22;11810;51.178;3.878;2022-12-29T05:38:34;10.40;99.90
23283;DHT22;11810;51.178;3.878;2022-12-29T05:41:01;10.30;99.90
23283;DHT22;11810;51.178;3.878;2022-12-29T05:43:27;10.30;99.90
23283;DHT22;11810;51.178;3.878;2022-12-29T05:45:53;10.40;99.90
23283;DHT22;11810;51.178;3.878;2022-12-29T05:48:19;10.50;99.90
23283;DHT22;11810;51.178;3.878;2022-12-29T05:50:48;10.50;99.90
23283;DHT22;11810;51.178;3.878;2022-12-29T05:53:14;10.50;99.90
23283;DHT22;11810;51.178;3.878;2022-12-29T05:55:40;10.70;99.90
23283;DHT22;11810;51.178;3.878;2022-12-29T05:58:06;10.60;99.90
23283;DHT22;11810;51.178;3.878;2022-12-29T06:00:33;10.60;99.90
23283;DHT22;11810;51.178;3.878;2022-12-29T06:02:59;10.60;99.90
23283;DHT22;11810;51.178;3.878;2022-12-29T06:05:25;10.60;99.90
23283;DHT22;11810;51.178;3.878;2022-12-29T06:07:51;10.50;99.90
23283;DHT22;11810;51.178;3.878;2022-12-29T06:10:17;10.50;99.90
23283;DHT22;11810;51.178;3.878;2022-12-29T06:12:43;10.50;99.90
23283;DHT22;11810;51.178;3.878;2022-12-29T06:15:09;10.50;99.90
23283;DHT22;11810;51.178;3.878;2022-12-29T06:17:35;10.50;99.90
23283;DHT22;11810;51.178;3.878;2022-12-29T06:20:01;10.60;99.90
23283;DHT22;11810;51.178;3.878;2022-12-29T06:22:27;10.50;99.90
23283;DHT22;11810;51.178;3.878;2022-12-29T06:24:53;10.50;99.90
23283;DHT22;11810;51.178;3.878;2022-12-29T06:27:19;10.50;99.90
23283;DHT22;11810;51.178;3.878;2022-12-29T06:29:45;10.50;99.90
23283;DHT22;11810;51.178;3.878;2022-12-29T06:32:11;10.40;99.90
23283;DHT22;11810;51.178;3.878;2022-12-29T06:34:37;10.40;99.90
23283;DHT22;11810;51.178;3.878;2022-12-29T06:37:03;10.40;99.90
23283;DHT22;11810;51.178;3.878;2022-12-29T06:39:28;10.50;99.90
23283;DHT22;11810;51.178;3.878;2022-12-29T06:41:54;10.60;99.90
23283;DHT22;11810;51.178;3.878;2022-12-29T06:44:21;10.70;99.90
23283;DHT22;11810;51.178;3.878;2022-12-29T06:46:48;10.70;99.90
23283;DHT22;11810;51.178;3.878;2022-12-29T06:49:14;10.50;99.90
23283;DHT22;11810;51.178;3.878;2022-12-29T06:51:40;10.20;99.90
23283;DHT22;11810;51.178;3.878;2022-12-29T06:54:07;10.00;99.90
23283;DHT22;11810;51.178;3.878;2022-12-29T06:56:33;9.80;99.90
23283;DHT22;11810;51.178;3.878;2022-12-29T06:58:59;9.70;99.90
23283;DHT22;11810;51.178;3.878;2022-12-29T07:01:28;9.40;99.90
23283;DHT22;11810;51.178;3.878;2022-12-29T07:03:53;9.40;99.90
23283;DHT22;11810;51.178;3.878;2022-12-29T07:06:20;9.40;99.90
23283;DHT22;11810;51.178;3.878;2022-12-29T07:08:46;9.40;99.90
23283;DHT22;11810;51.178;3.878;2022-12-29T07:11:12;9.40;99.90
23283;DHT22;11810;51.178;3.878;2022-12-29T07:13:38;9.40;99.90
23283;DHT22;11810;51.178;3.878;2022-12-29T07:16:08;9.50;99.90
23283;DHT22;11810;51.178;3.878;2022-12-29T07:18:34;9.60;99.90
23283;DHT22;11810;51.178;3.878;2022-12-29T07:21:00;9.70;99.90
23283;DHT22;11810;51.178;3.878;2022-12-29T07:23:26;9.70;99.90
23283;DHT22;11810;51.178;3.878;2022-12-29T07:26:04;9.90;99.90
23283;DHT22;11810;51.178;3.878;2022-12-29T07:28:30;10.00;99.90
23283;DHT22;11810;51.178;3.878;2022-12-29T07:30:58;10.00;99.90
23283;DHT22;11810;51.178;3.878;2022-12-29T07:33:24;10.00;99.90
23283;DHT22;11810;51.178;3.878;2022-12-29T07:49:23;10.10;99.90
23283;DHT22;11810;51.178;3.878;2022-12-29T07:51:49;10.60;99.90
23283;DHT22;11810;51.178;3.878;2022-12-29T07:54:15;10.60;99.90
23283;DHT22;11810;51.178;3.878;2022-12-29T07:56:45;10.50;99.90
23283;DHT22;11810;51.178;3.878;2022-12-29T07:59:11;10.40;99.90
23283;DHT22;11810;51.178;3.878;2022-12-29T08:01:38;10.40;99.90
23283;DHT22;11810;51.178;3.878;2022-12-29T08:04:04;10.30;99.90
23283;DHT22;11810;51.178;3.878;2022-12-29T08:06:30;10.40;99.90
23283;DHT22;11810;51.178;3.878;2022-12-29T08:08:56;10.30;99.90
23283;DHT22;11810;51.178;3.878;2022-12-29T08:11:23;10.20;99.90
23283;DHT22;11810;51.178;3.878;2022-12-29T08:13:49;10.10;99.90
23283;DHT22;11810;51.178;3.878;2022-12-29T08:16:15;10.00;99.90
23283;DHT22;11810;51.178;3.878;2022-12-29T08:18:41;9.90;99.90
23283;DHT22;11810;51.178;3.878;2022-12-29T08:21:07;9.80;99.90
23283;DHT22;11810;51.178;3.878;2022-12-29T08:23:33;9.80;99.90
23283;DHT22;11810;51.178;3.878;2022-12-29T08:26:00;9.70;99.90
23283;DHT22;11810;51.178;3.878;2022-12-29T08:28:28;9.70;99.90
23283;DHT22;11810;51.178;3.878;2022-12-29T08:30:58;9.60;99.90
23283;DHT22;11810;51.178;3.878;2022-12-29T08:33:24;9.50;99.90
23283;DHT22;11810;51.178;3.878;2022-12-29T08:35:50;9.40;99.90
23283;DHT22;11810;51.178;3.878;2022-12-29T08:38:16;9.40;99.90
23283;DHT22;11810;51.178;3.878;2022-12-29T08:40:42;9.30;99.90
23283;DHT22;11810;51.178;3.878;2022-12-29T08:43:07;9.30;99.90
23283;DHT22;11810;51.178;3.878;2022-12-29T08:45:33;9.30;99.90
23283;DHT22;11810;51.178;3.878;2022-12-29T08:47:59;9.40;99.90
23283;DHT22;11810;51.178;3.878;2022-12-29T08:50:25;9.30;99.90
23283;DHT22;11810;51.178;3.878;2022-12-29T08:52:51;9.30;99.90
23283;DHT22;11810;51.178;3.878;2022-12-29T08:55:17;9.30;99.90
23283;DHT22;11810;51.178;3.878;2022-12-29T08:57:43;9.30;99.90
23283;DHT22;11810;51.178;3.878;2022-12-29T09:00:10;9.30;99.90
23283;DHT22;11810;51.178;3.878;2022-12-29T09:02:36;9.30;99.90
23283;DHT22;11810;51.178;3.878;2022-12-29T09:05:02;9.20;99.90
23283;DHT22;11810;51.178;3.878;2022-12-29T09:07:28;9.30;99.90
23283;DHT22;11810;51.178;3.878;2022-12-29T09:09:57;9.30;99.90
23283;DHT22;11810;51.178;3.878;2022-12-29T09:12:23;9.30;99.90
23283;DHT22;11810;51.178;3.878;2022-12-29T09:14:49;9.40;99.90
23283;DHT22;11810;51.178;3.878;2022-12-29T09:17:15;9.40;99.90
23283;DHT22;11810;51.178;3.878;2022-12-29T09:19:59;9.40;99.90
23283;DHT22;11810;51.178;3.878;2022-12-29T09:22:27;9.30;99.90
23283;DHT22;11810;51.178;3.878;2022-12-29T09:24:53;9.40;99.90
23283;DHT22;11810;51.178;3.878;2022-12-29T09:27:19;9.40;99.90
23283;DHT22;11810;51.178;3.878;2022-12-29T09:29:45;9.40;99.90
23283;DHT22;11810;51.178;3.878;2022-12-29T09:32:10;9.50;99.90
23283;DHT22;11810;51.178;3.878;2022-12-29T09:34:36;9.50;99.90
23283;DHT22;11810;51.178;3.878;2022-12-29T09:37:02;9.50;99.90
23283;DHT22;11810;51.178;3.878;2022-12-29T09:39:28;9.50;99.90
23283;DHT22;11810;51.178;3.878;2022-12-29T09:42:14;9.50;99.90
23283;DHT22;11810;51.178;3.878;2022-12-29T09:47:22;9.60;99.90
23283;DHT22;11810;51.178;3.878;2022-12-29T09:55:09;9.80;99.90
23283;DHT22;11810;51.178;3.878;2022-12-29T09:57:40;9.90;99.90
23283;DHT22;11810;51.178;3.878;2022-12-29T10:00:17;9.90;99.90
23283;DHT22;11810;51.178;3.878;2022-12-29T10:05:59;9.90;99.90
23283;DHT22;11810;51.178;3.878;2022-12-29T10:08:15;9.90;99.90
23283;DHT22;11810;51.178;3.878;2022-12-29T10:10:56;9.90;99.90
23283;DHT22;11810;51.178;3.878;2022-12-29T10:13:34;9.90;99.90
23283;DHT22;11810;51.178;3.878;2022-12-29T10:21:47;10.00;99.90
23283;DHT22;11810;51.178;3.878;2022-12-29T10:24:21;10.10;99.90
23283;DHT22;11810;51.178;3.878;2022-12-29T10:26:49;10.10;99.90
23283;DHT22;11810;51.178;3.878;2022-12-29T10:29:24;10.10;99.90
23283;DHT22;11810;51.178;3.878;2022-12-29T10:34:42;10.40;99.90
23283;DHT22;11810;51.178;3.878;2022-12-29T10:37:27;10.40;99.90
23283;DHT22;11810;51.178;3.878;2022-12-29T10:39:56;10.40;99.90
23283;DHT22;11810;51.178;3.878;2022-12-29T10:42:29;10.50;99.90
23283;DHT22;11810;51.178;3.878;2022-12-29T10:45:00;10.50;99.90
23283;DHT22;11810;51.178;3.878;2022-12-29T10:47:33;10.60;99.90
23283;DHT22;11810;51.178;3.878;2022-12-29T10:50:01;10.80;99.90
23283;DHT22;11810;51.178;3.878;2022-12-29T10:52:33;10.80;99.90
23283;DHT22;11810;51.178;3.878;2022-12-29T10:55:21;10.80;99.90
23283;DHT22;11810;51.178;3.878;2022-12-29T10:57:48;10.70;99.90
23283;DHT22;11810;51.178;3.878;2022-12-29T11:00:20;10.60;99.90
23283;DHT22;11810;51.178;3.878;2022-12-29T11:06:09;10.70;99.90
23283;DHT22;11810;51.178;3.878;2022-12-29T11:08:39;10.60;99.90
23283;DHT22;11810;51.178;3.878;2022-12-29T11:11:09;10.60;99.90
23283;DHT22;11810;51.178;3.878;2022-12-29T11:13:57;10.60;99.90
23283;DHT22;11810;51.178;3.878;2022-12-29T11:16:31;10.50;99.90
23283;DHT22;11810;51.178;3.878;2022-12-29T11:18:58;10.50;99.90
23283;DHT22;11810;51.178;3.878;2022-12-29T11:21:33;10.40;99.90
23283;DHT22;11810;51.178;3.878;2022-12-29T11:24:03;10.40;99.90
23283;DHT22;11810;51.178;3.878;2022-12-29T11:26:30;10.40;99.90
23283;DHT22;11810;51.178;3.878;2022-12-29T11:29:21;10.60;99.90
23283;DHT22;11810;51.178;3.878;2022-12-29T11:31:53;10.50;99.90
23283;DHT22;11810;51.178;3.878;2022-12-29T11:34:33;10.70;99.90
23283;DHT22;11810;51.178;3.878;2022-12-29T11:37:22;10.60;99.90
23283;DHT22;11810;51.178;3.878;2022-12-29T11:39:53;10.60;99.90
23283;DHT22;11810;51.178;3.878;2022-12-29T11:45:14;10.60;99.90
23283;DHT22;11810;51.178;3.878;2022-12-29T11:47:45;10.60;99.90
23283;DHT22;11810;51.178;3.878;2022-12-29T11:50:19;10.50;99.90
23283;DHT22;11810;51.178;3.878;2022-12-29T11:52:46;10.50;99.90
23283;DHT22;11810;51.178;3.878;2022-12-29T11:55:20;10.40;99.90
23283;DHT22;11810;51.178;3.878;2022-12-29T11:57:48;10.40;99.90
23283;DHT22;11810;51.178;3.878;2022-12-29T12:00:21;10.40;99.90
23283;DHT22;11810;51.178;3.878;2022-12-29T12:04:17;10.10;99.90
23283;DHT22;11810;51.178;3.878;2022-12-29T12:07:02;9.90;99.90
23283;DHT22;11810;51.178;3.878;2022-12-29T12:09:35;9.90;99.90
23283;DHT22;11810;51.178;3.878;2022-12-29T12:12:03;9.80;99.90
23283;DHT22;11810;51.178;3.878;2022-12-29T12:14:53;9.90;99.90
23283;DHT22;11810;51.178;3.878;2022-12-29T12:20:26;9.90;99.90
23283;DHT22;11810;51.178;3.878;2022-12-29T12:25:46;10.00;99.90
23283;DHT22;11810;51.178;3.878;2022-12-29T12:30:54;10.10;99.90
23283;DHT22;11810;51.178;3.878;2022-12-29T12:33:33;10.10;99.90
23283;DHT22;11810;51.178;3.878;2022-12-29T12:44:17;10.40;99.90
23283;DHT22;11810;51.178;3.878;2022-12-29T12:49:21;10.40;99.90
23283;DHT22;11810;51.178;3.878;2022-12-29T13:02:59;10.30;99.90
23283;DHT22;11810;51.178;3.878;2022-12-29T13:09:14;10.30;99.90
23283;DHT22;11810;51.178;3.878;2022-12-29T13:27:33;10.20;99.90
23283;DHT22;11810;51.178;3.878;2022-12-29T13:30:10;10.10;99.90
23283;DHT22;11810;51.178;3.878;2022-12-29T13:40:43;10.00;99.90
23283;DHT22;11810;51.178;3.878;2022-12-29T13:43:12;9.90;99.90
23283;DHT22;11810;51.178;3.878;2022-12-29T13:45:40;9.80;99.90
23283;DHT22;11810;51.178;3.878;2022-12-29T13:48:20;9.80;99.90
23283;DHT22;11810;51.178;3.878;2022-12-29T13:50:58;9.70;99.90
23283;DHT22;11810;51.178;3.878;2022-12-29T13:56:35;9.30;99.90
23283;DHT22;11810;51.178;3.878;2022-12-29T14:04:55;9.30;99.90
23283;DHT22;11810;51.178;3.878;2022-12-29T14:07:22;9.20;99.90
23283;DHT22;11810;51.178;3.878;2022-12-29T14:09:53;9.30;99.90
23283;DHT22;11810;51.178;3.878;2022-12-29T14:12:41;9.30;99.90
23283;DHT22;11810;51.178;3.878;2022-12-29T14:17:40;9.20;99.90
23283;DHT22;11810;51.178;3.878;2022-12-29T14:20:17;9.20;99.90
23283;DHT22;11810;51.178;3.878;2022-12-29T14:22:58;9.20;99.90
23283;DHT22;11810;51.178;3.878;2022-12-29T14:25:57;9.20;99.90
23283;DHT22;11810;51.178;3.878;2022-12-29T14:28:29;9.10;99.90
23283;DHT22;11810;51.178;3.878;2022-12-29T14:30:57;9.20;99.90
23283;DHT22;11810;51.178;3.878;2022-12-29T14:33:30;9.10;99.90
23283;DHT22;11810;51.178;3.878;2022-12-29T14:36:17;9.10;99.90
23283;DHT22;11810;51.178;3.878;2022-12-29T14:38:47;9.20;99.90
23283;DHT22;11810;51.178;3.878;2022-12-29T14:41:42;9.20;99.90
23283;DHT22;11810;51.178;3.878;2022-12-29T14:45:41;9.10;99.90
23283;DHT22;11810;51.178;3.878;2022-12-29T14:48:32;9.10;99.90
23283;DHT22;11810;51.178;3.878;2022-12-29T14:50:59;9.00;99.90
23283;DHT22;11810;51.178;3.878;2022-12-29T14:53:45;9.00;99.90
23283;DHT22;11810;51.178;3.878;2022-12-29T14:56:13;8.90;99.90
23283;DHT22;11810;51.178;3.878;2022-12-29T14:58:59;8.90;99.90
23283;DHT22;11810;51.178;3.878;2022-12-29T15:04:00;8.90;99.90
23283;DHT22;11810;51.178;3.878;2022-12-29T15:06:29;8.90;99.90
23283;DHT22;11810;51.178;3.878;2022-12-29T15:09:44;9.00;99.90
23283;DHT22;11810;51.178;3.878;2022-12-29T15:12:01;8.90;99.90
23283;DHT22;11810;51.178;3.878;2022-12-29T15:16:57;9.00;99.90
23283;DHT22;11810;51.178;3.878;2022-12-29T15:19:25;9.00;99.90
23283;DHT22;11810;51.178;3.878;2022-12-29T15:21:52;8.90;99.90
23283;DHT22;11810;51.178;3.878;2022-12-29T15:24:19;8.90;99.90
23283;DHT22;11810;51.178;3.878;2022-12-29T15:26:53;8.90;99.90
23283;DHT22;11810;51.178;3.878;2022-12-29T15:29:39;9.00;99.90
23283;DHT22;11810;51.178;3.878;2022-12-29T15:32:26;9.10;99.90
23283;DHT22;11810;51.178;3.878;2022-12-29T15:34:55;9.00;99.90
23283;DHT22;11810;51.178;3.878;2022-12-29T15:37:28;9.00;99.90
23283;DHT22;11810;51.178;3.878;2022-12-29T15:39:55;8.90;99.90
23283;DHT22;11810;51.178;3.878;2022-12-29T15:45:13;8.90;99.90
23283;DHT22;11810;51.178;3.878;2022-12-29T15:47:41;8.80;99.90
23283;DHT22;11810;51.178;3.878;2022-12-29T15:50:24;8.70;99.90
23283;DHT22;11810;51.178;3.878;2022-12-29T15:52:51;8.70;99.90
23283;DHT22;11810;51.178;3.878;2022-12-29T15:55:28;8.70;99.90
23283;DHT22;11810;51.178;3.878;2022-12-29T15:57:57;8.70;99.90
23283;DHT22;11810;51.178;3.878;2022-12-29T16:00:35;8.80;99.90
23283;DHT22;11810;51.178;3.878;2022-12-29T16:03:05;8.70;99.90
23283;DHT22;11810;51.178;3.878;2022-12-29T16:05:37;8.60;99.90
23283;DHT22;11810;51.178;3.878;2022-12-29T16:10:52;8.50;99.90
23283;DHT22;11810;51.178;3.878;2022-12-29T16:13:28;8.50;99.90
23283;DHT22;11810;51.178;3.878;2022-12-29T16:16:00;8.50;99.90
23283;DHT22;11810;51.178;3.878;2022-12-29T16:18:34;8.40;99.90
23283;DHT22;11810;51.178;3.878;2022-12-29T16:21:01;8.40;99.90
23283;DHT22;11810;51.178;3.878;2022-12-29T16:23:31;8.40;99.90
23283;DHT22;11810;51.178;3.878;2022-12-29T16:26:00;8.30;99.90
23283;DHT22;11810;51.178;3.878;2022-12-29T16:28:48;8.30;99.90
23283;DHT22;11810;51.178;3.878;2022-12-29T16:31:21;8.20;99.90
23283;DHT22;11810;51.178;3.878;2022-12-29T16:33:50;8.20;99.90
23283;DHT22;11810;51.178;3.878;2022-12-29T16:36:30;8.20;99.90
23283;DHT22;11810;51.178;3.878;2022-12-29T16:44:46;8.10;99.90
23283;DHT22;11810;51.178;3.878;2022-12-29T16:49:40;8.10;99.90
23283;DHT22;11810;51.178;3.878;2022-12-29T16:52:34;8.20;99.90
23283;DHT22;11810;51.178;3.878;2022-12-29T16:55:01;8.20;99.90
23283;DHT22;11810;51.178;3.878;2022-12-29T16:57:32;8.10;99.90
23283;DHT22;11810;51.178;3.878;2022-12-29T17:00:05;8.10;99.90
23283;DHT22;11810;51.178;3.878;2022-12-29T17:02:34;8.00;99.90
23283;DHT22;11810;51.178;3.878;2022-12-29T17:05:17;8.10;99.90
23283;DHT22;11810;51.178;3.878;2022-12-29T17:07:44;8.10;99.90
23283;DHT22;11810;51.178;3.878;2022-12-29T17:10:11;8.10;99.90
23283;DHT22;11810;51.178;3.878;2022-12-29T17:12:38;8.10;99.90
23283;DHT22;11810;51.178;3.878;2022-12-29T17:17:43;8.10;99.90
23283;DHT22;11810;51.178;3.878;2022-12-29T17:20:21;8.10;99.90
23283;DHT22;11810;51.178;3.878;2022-12-29T17:22:48;8.20;99.90
23283;DHT22;11810;51.178;3.878;2022-12-29T17:25:18;8.10;99.90
23283;DHT22;11810;51.178;3.878;2022-12-29T17:27:54;8.10;99.90
23283;DHT22;11810;51.178;3.878;2022-12-29T17:30:22;8.00;99.90
23283;DHT22;11810;51.178;3.878;2022-12-29T17:32:51;8.00;99.90
23283;DHT22;11810;51.178;3.878;2022-12-29T17:35:19;8.10;99.90
23283;DHT22;11810;51.178;3.878;2022-12-29T17:37:46;8.20;99.90
23283;DHT22;11810;51.178;3.878;2022-12-29T17:40:34;8.20;99.90
23283;DHT22;11810;51.178;3.878;2022-12-29T17:43:00;8.20;99.90
23283;DHT22;11810;51.178;3.878;2022-12-29T17:45:30;8.20;99.90
23283;DHT22;11810;51.178;3.878;2022-12-29T17:47:57;8.10;99.90
23283;DHT22;11810;51.178;3.878;2022-12-29T17:50:27;8.00;99.90
23283;DHT22;11810;51.178;3.878;2022-12-29T17:53:05;8.20;99.90
23283;DHT22;11810;51.178;3.878;2022-12-29T17:55:32;8.20;99.90
23283;DHT22;11810;51.178;3.878;2022-12-29T17:57:58;8.20;99.90
23283;DHT22;11810;51.178;3.878;2022-12-29T18:00:28;8.20;99.90
23283;DHT22;11810;51.178;3.878;2022-12-29T18:02:57;8.20;99.90
23283;DHT22;11810;51.178;3.878;2022-12-29T18:05:24;8.30;99.90
23283;DHT22;11810;51.178;3.878;2022-12-29T18:07:52;8.40;99.90
23283;DHT22;11810;51.178;3.878;2022-12-29T18:10:20;8.40;99.90
23283;DHT22;11810;51.178;3.878;2022-12-29T18:12:48;8.40;99.90
23283;DHT22;11810;51.178;3.878;2022-12-29T18:15:24;8.40;99.90
23283;DHT22;11810;51.178;3.878;2022-12-29T18:20:37;8.40;99.90
23283;DHT22;11810;51.178;3.878;2022-12-29T18:23:03;8.30;99.90
23283;DHT22;11810;51.178;3.878;2022-12-29T18:25:44;8.40;99.90
23283;DHT22;11810;51.178;3.878;2022-12-29T18:28:11;8.40;99.90
23283;DHT22;11810;51.178;3.878;2022-12-29T18:30:37;8.40;99.90
23283;DHT22;11810;51.178;3.878;2022-12-29T18:33:03;8.40;99.90
23283;DHT22;11810;51.178;3.878;2022-12-29T18:35:41;8.40;99.90
23283;DHT22;11810;51.178;3.878;2022-12-29T18:38:07;8.40;99.90
23283;DHT22;11810;51.178;3.878;2022-12-29T18:40:34;8.40;99.90
23283;DHT22;11810;51.178;3.878;2022-12-29T18:43:00;8.40;99.90
23283;DHT22;11810;51.178;3.878;2022-12-29T18:45:29;8.40;99.90
23283;DHT22;11810;51.178;3.878;2022-12-29T18:47:56;8.40;99.90
23283;DHT22;11810;51.178;3.878;2022-12-29T18:50:21;8.30;99.90